Tiempo atmosférico en la estación meteorológica de Garrucha, Puerto, Almería (12 m.)



Fecha
DESCASC
Temp. máxima en grados centígrados (hora)
DESCASC
Temp. mínima en grados centígrados (hora)
DESCASC
Temp. media en grados centígrados
DESCASC
Racha de viento máxima en m/sg (hora)
DESCASC
Velocidad máxima media en intervalos de 10 minutos(hora)
DESCASC
Precipitaciones diarias en mm
DESCASC
Precipitaciones de 00:00 a 06:00 en mm
DESCASC
Precipitaciones de 06:00 a 12:00 en mm
DESCASC
Precipitaciones de 12:00 a 18:00 en mm
DESCASC
Precipitaciones de 18:00 a 24:00 en mm
DESCASC
24-12-2020 18.4 (12:20) 9.5 (00:00) 13.9 6.94 (22:30) 5.28 (22:30) 0 0 0 0 0
21-01-2021 18.3 (14:40) 10.1 (00:00) 14.2 8.61 (15:40) 6.94 (13:20) 0 0 0 0 0
20-01-2021 15.4 (20:30) 6.9 (00:00) 11.1 14.17 (21:20) 8.89 (22:50) 0 0 0 0 0
19-01-2021 15.2 (12:50) 6.8 (00:00) 11 6.94 (17:40) 6.11 (17:20) 0 0 0 0 0
18-01-2021 17.2 (12:40) 8.2 (00:00) 12.7 7.22 (07:30) 5.56 (07:30) 0 0 0 0 0
17-01-2021 16.2 (11:40) 5.8 (00:00) 11 8.33 (15:40) 7.22 (15:20) 0 0 0 0 0
16-01-2021 14.3 (11:40) 7.2 (00:00) 10.8 10.56 (11:50) 7.78 (11:50) 0 0 0 0 0
15-01-2021 16.8 (12:10) 6 (00:00) 11.4 7.5 (15:10) 6.67 (15:20) 0 0 0 0 0
14-01-2021 15.4 (12:20) 5.2 (06:20) 10.3 7.78 (15:10) 6.67 (15:20) 0 0 0 0 0
13-01-2021 14.8 (16:30) 5.5 (00:00) 10.2 6.11 (17:10) 4.17 (23:10) 0 0 0 0 0
12-01-2021 14.2 (16:40) 4.8 (00:00) 9.5 10.28 (16:00) 8.89 (16:00) 0 0 0 0 0
10-01-2021 12.4 (12:50) 6 (08:40) 9.2 7.22 (02:50) 5 (02:50) 1.8 1.8 0 0 0
09-01-2021 15.7 (14:50) 7.7 (00:00) 11.7 13.33 (16:20) 9.17 (16:30) 6.4 6.4 0 0 0
06-01-2021 12.5 (13:40) 8.1 (00:00) 10.3 12.5 (21:30) 9.44 (20:30) 6.2 0 0 0 6.2
05-01-2021 12.6 (12:30) 5.4 (00:00) 9 6.39 (18:30) 4.72 (03:00) 0 0 0 0 0
04-01-2021 13.8 (11:50) 5 (00:00) 9.4 8.33 (15:40) 6.39 (15:00) 0 0 0 0 0
03-01-2021 13.6 (15:30) 6 (00:00) 9.8 13.06 (09:50) 8.06 (13:10) 0 0 0 0 0
02-01-2021 12.5 (14:40) 7.6 (00:00) 10 15 (13:40) 10.28 (13:50) 0 0 0 0 0
01-01-2021 13.9 (15:00) 7.6 (00:00) 10.7 17.5 (11:10) 11.11 (16:30) 0 0 0 0 0
31-12-2020 15.7 (17:10) 4.6 (00:00) 10.1 10.56 (16:20) 8.89 (15:10) 0 0 0 0 0
30-12-2020 14.9 (11:50) 8.2 (00:00) 11.5 12.5 (06:20) 8.89 (17:00) 0 0 0 0 0
29-12-2020 15.8 (14:40) 9.2 (00:00) 12.5 14.44 (14:20) 10.83 (13:40) 0 0 0 0 0
28-12-2020 20 (12:10) 9.7 (00:00) 14.8 16.67 (14:30) 10.83 (13:30) 0 0 0 0 0
27-12-2020 16.2 (16:50) 2.9 (00:00) 9.6 9.44 (16:00) 6.67 (16:00) 0 0 0 0 0
26-12-2020 12.7 (12:20) 5.7 (00:00) 9.2 8.89 (08:30) 6.67 (13:20) 0 0 0 0 0
25-12-2020 16.9 (12:50) 9.7 (00:00) 13.3 11.67 (18:30) 7.5 (18:30) 0 0 0 0 0
23-12-2020 17.9 (17:00) 9.5 (00:00) 13.7 8.89 (15:00) 7.22 (14:30) 0 0 0 0 0
11-01-2021 12.1 (14:10) 7.2 (00:00) 9.7 8.06 (04:40) 5.56 (15:20) 0.4 0 0.4 0 0
07-01-2021 9.8 (00:00) 6.3 (00:00) 8.1 11.11 (00:30) 7.22 (00:40) 17.6 12 2.4 1.8 1.4
08-01-2021 9.1 (18:00) 6.6 (00:00) 7.9 9.44 (18:00) 5.28 (13:40) 24 9 4.8 4 6.2

Gráficas

Temp. máximas Temp. mínimas Temp. medias Precipitaciones Rachas de viento máximas Velocidades máximas media en intervalos de 10 minutos

Datos horarios

Fecha y hora oficial Temperatura (ºC) Velocidad del viento (km/h) Dirección del viento Racha (km/h) Dirección de racha Precipitación (mm) Presión (hPa) Tendencia (hPa) Humedad (%)
2021-01-21 23:00:00 15.3 15 Oeste 26 Sudoeste 0 -- -- 67
2021-01-21 22:00:00 14.4 5 Oeste 21 Sur 0 -- -- 72
2021-01-21 21:00:00 15.5 10 Sudeste 21 Sur 0 -- -- 71
2021-01-21 20:00:00 15.9 5 Sudoeste 14 Noroeste 0 -- -- 70
2021-01-21 19:00:00 16.5 5 Sur 30 Sudeste 0 -- -- 73
2021-01-21 18:00:00 16.8 19 Sur 27 Sur 0 -- -- 74
2021-01-21 17:00:00 17.1 19 Sur 28 Sudeste 0 -- -- 71
2021-01-21 16:00:00 16.7 23 Sudeste 31 Sudeste 0 -- -- 72
2021-01-21 15:00:00 17.5 23 Sur 27 Sudeste 0 -- -- 66
2021-01-21 14:00:00 17.5 12 Sudeste 29 Sudeste 0 -- -- 66
2021-01-21 13:00:00 16.4 20 Sur 29 Sur 0 -- -- 71
2021-01-21 12:00:00 15.8 11 Sudeste 17 Sudeste 0 -- -- 76
2021-01-21 11:00:00 17.5 2 Sur 11 Este 0 -- -- 65
2021-01-21 10:00:00 15.1 3 Sudeste 17 Sudoeste 0 -- -- 62
2021-01-21 09:00:00 12.8 6 Sudoeste 14 Sudoeste 0 -- -- 70
2021-01-21 08:00:00 11.2 4 Oeste 13 Oeste 0 -- -- 74
2021-01-21 07:00:00 11 9 Oeste 21 Sudoeste 0 -- -- 72
2021-01-21 06:00:00 11.4 17 Sudoeste 28 Noroeste 0 -- -- 74
2021-01-21 05:00:00 10.3 10 Sudeste 13 Sur 0 -- -- 82
2021-01-21 04:00:00 11.9 13 Sudoeste 19 Sudoeste 0 -- -- 78
2021-01-21 03:00:00 12.4 8 Oeste 15 Sudoeste 0 -- -- 82
2021-01-21 02:00:00 12.4 7 Noroeste 14 Oeste 0 -- -- 84
2021-01-21 01:00:00 12.9 7 Oeste 21 Sudoeste 0 -- -- 80
2021-01-21 00:00:00 14.4 18 Sudoeste 47 Sur 0 -- -- 79
2021-01-20 23:00:00 15 31 Sur 51 Sudoeste 0 -- -- 75
2021-01-20 22:00:00 15.1 22 Sudoeste 51 Sudoeste 0 -- -- 70
2021-01-20 21:00:00 15.1 18 Sudoeste 43 Sudoeste 0 -- -- 68
2021-01-20 20:00:00 15.1 20 Sur 35 Sudoeste 0 -- -- 72
2021-01-20 19:00:00 13.8 14 Nordeste 21 Este 0 -- -- 83
2021-01-20 18:00:00 13.6 13 Nordeste 21 Norte 0 -- -- 81
2021-01-20 17:00:00 13.9 10 Nordeste 16 Nordeste 0 -- -- 78
2021-01-20 16:00:00 13 10 Norte 15 Norte 0 -- -- 79
2021-01-20 15:00:00 12.1 3 Noroeste 15 Noroeste 0 -- -- 79
2021-01-20 14:00:00 11.3 4 Oeste 8 Oeste 0 -- -- 81
2021-01-20 13:00:00 10.9 5 Oeste 13 Noroeste 0 -- -- 83
2021-01-20 12:00:00 10.8 7 Noroeste 14 Noroeste 0 -- -- 84
2021-01-20 11:00:00 10.2 10 Noroeste 16 Noroeste 0 -- -- 87
2021-01-20 10:00:00 8.2 13 Noroeste 17 Noroeste 0 -- -- 85
2021-01-20 09:00:00 6.9 12 Noroeste 20 Oeste 0 -- -- 91
2021-01-20 08:00:00 7.2 12 Oeste 19 Oeste 0 -- -- 94
2021-01-20 07:00:00 7.5 12 Oeste 18 Oeste 0 -- -- 95
2021-01-20 06:00:00 8.1 11 Oeste 14 Oeste 0 -- -- 92
2021-01-20 05:00:00 7.9 3 Noroeste 19 Sudoeste 0 -- -- 89
2021-01-20 04:00:00 9 16 Sudoeste 23 Sudoeste 0 -- -- 89
2021-01-20 03:00:00 9.2 17 Sudoeste 21 Sudoeste 0 -- -- 91
2021-01-20 02:00:00 9.3 15 Sudoeste 21 Sudoeste 0 -- -- 93
2021-01-20 01:00:00 9.6 17 Sudoeste 23 Sudoeste 0 -- -- 91
2021-01-20 00:00:00 10 15 Oeste 22 Oeste 0 -- -- 91
2021-01-19 23:00:00 10.6 10 Sudoeste 15 Sudoeste 0 -- -- 90
2021-01-19 22:00:00 11.3 13 Oeste 15 Oeste 0 -- -- 92
2021-01-19 21:00:00 11.3 9 Sudoeste 14 Sudoeste 0 -- -- 93
2021-01-19 20:00:00 11.6 10 Sudoeste 14 Sudoeste 0 -- -- 91
2021-01-19 19:00:00 13.2 14 Sur 21 Sudeste 0 -- -- 88
2021-01-19 18:00:00 13.4 19 Sudeste 25 Sudeste 0 -- -- 87
2021-01-19 17:00:00 13.6 21 Sudeste 25 Sudeste 0 -- -- 85
2021-01-19 16:00:00 13.8 19 Sudeste 24 Sudeste 0 -- -- 84
2021-01-19 15:00:00 14 19 Sudeste 21 Este 0 -- -- 82
2021-01-19 14:00:00 13.8 14 Este 16 Este 0 -- -- 80
2021-01-19 13:00:00 14.9 5 Nordeste 8 Nordeste 0 -- -- 73
2021-01-19 12:00:00 12.9 4 Noroeste 10 Noroeste 0 -- -- 73
2021-01-19 11:00:00 11.2 5 Noroeste 13 Noroeste 0 -- -- 71
2021-01-19 10:00:00 8.4 4 Noroeste 17 Oeste 0 -- -- 82
2021-01-19 09:00:00 7.7 12 Oeste 21 Oeste 0 -- -- 82
2021-01-19 08:00:00 6.9 15 Oeste 21 Oeste 0 -- -- 84
2021-01-19 07:00:00 7.4 10 Oeste 17 Oeste 0 -- -- 83
2021-01-19 06:00:00 7.6 8 Oeste 14 Noroeste 0 -- -- 82
2021-01-19 05:00:00 7.3 9 Noroeste 17 Oeste 0 -- -- 84
2021-01-19 04:00:00 7.9 13 Oeste 18 Oeste 0 -- -- 84
2021-01-19 03:00:00 8.1 8 Oeste 18 Oeste 0 -- -- 86
2021-01-19 02:00:00 8.8 11 Oeste 19 Oeste 0 -- -- 85
2021-01-19 01:00:00 9.4 13 Oeste 19 Oeste 0 -- -- 87
2021-01-19 00:00:00 9.8 12 Noroeste 16 Noroeste 0 -- -- 90
2021-01-18 23:00:00 10.5 12 Oeste 18 Oeste 0 -- -- 89
2021-01-18 22:00:00 11.7 11 Oeste 15 Sudoeste 0 -- -- 88
2021-01-18 21:00:00 12.2 6 Oeste 11 Oeste 0 -- -- 88
2021-01-18 20:00:00 13.2 3 Noroeste 8 Este 0 -- -- 86
2021-01-18 19:00:00 14 6 Este 13 Este 0 -- -- 85
2021-01-18 18:00:00 14.6 11 Este 15 Este 0 -- -- 80
2021-01-18 17:00:00 14.9 13 Este 16 Este 0 -- -- 77
2021-01-18 16:00:00 15 12 Este 15 Este 0 -- -- 71
2021-01-18 15:00:00 15.2 9 Este 12 Este 0 -- -- 59
2021-01-18 14:00:00 16.1 3 Sudeste 6 Este 0 -- -- 58
2021-01-18 13:00:00 16.2 4 Este 6 Oeste 0 -- -- 51
2021-01-18 12:00:00 15.4 9 Oeste 12 Oeste 0 -- -- 40
2021-01-18 11:00:00 13.5 6 Oeste 18 Noroeste 0 -- -- 46
2021-01-18 10:00:00 10 11 Noroeste 24 Oeste 0 -- -- 56
2021-01-18 09:00:00 8.3 20 Oeste 26 Oeste 0 -- -- 58
2021-01-18 08:00:00 9.2 15 Oeste 26 Oeste 0 -- -- 56
2021-01-18 07:00:00 9.6 15 Oeste 21 Oeste 0 -- -- 52
2021-01-18 06:00:00 9.5 11 Oeste 17 Oeste 0 -- -- 55
2021-01-18 05:00:00 9.8 14 Oeste 23 Oeste 0 -- -- 53
2021-01-18 04:00:00 10.6 17 Oeste 24 Oeste 0 -- -- 53
2021-01-18 03:00:00 9.8 15 Oeste 21 Oeste 0 -- -- 57
2021-01-18 02:00:00 10.6 12 Oeste 17 Oeste 0 -- -- 56
2021-01-18 01:00:00 11.1 7 Noroeste 15 Oeste 0 -- -- 58
2021-01-18 00:00:00 10.8 2 Sudoeste 20 Oeste 0 -- -- 70
2021-01-17 23:00:00 10.5 11 Oeste 16 Oeste 0 -- -- 72
2021-01-17 22:00:00 11.6 11 Oeste 18 Oeste 0 -- -- 76
2021-01-17 21:00:00 12.3 9 Oeste 14 Oeste 0 -- -- 80
2021-01-17 20:00:00 12.8 5 Norte 12 Norte 0 -- -- 90
2021-01-17 19:00:00 13.9 9 Norte 18 Norte 0 -- -- 88
2021-01-17 18:00:00 14.8 13 Norte 18 Norte 0 -- -- 82
2021-01-17 17:00:00 16 4 Sudeste 17 Sur 0 -- -- 72
2021-01-17 16:00:00 15.1 19 Sur 30 Sur 0 -- -- 81
2021-01-17 15:00:00 14.5 25 Sur 28 Sur 0 -- -- 83
2021-01-17 14:00:00 14.2 8 Sudeste 9 Sudeste 0 -- -- 75
2021-01-17 13:00:00 13.9 4 Este 6 Este 0 -- -- 58
2021-01-17 12:00:00 14.9 2 Este 5 Oeste 0 -- -- 52
2021-01-17 11:00:00 11.5 4 Noroeste 10 Oeste 0 -- -- 57
2021-01-17 10:00:00 9 6 Oeste 12 Oeste 0 -- -- 63
2021-01-17 09:00:00 6.8 10 Oeste 14 Oeste 0 -- -- 69
2021-01-17 08:00:00 6.1 7 Oeste 15 Oeste 0 -- -- 72
2021-01-17 07:00:00 6.2 9 Noroeste 14 Oeste 0 -- -- 76
2021-01-17 06:00:00 6.7 8 Noroeste 17 Oeste 0 -- -- 75
2021-01-17 05:00:00 6.9 9 Oeste 15 Oeste 0 -- -- 80
2021-01-17 04:00:00 6.9 13 Oeste 19 Oeste 0 -- -- 78
2021-01-17 03:00:00 7.2 10 Oeste 16 Oeste 0 -- -- 79
2021-01-17 02:00:00 8.2 8 Oeste 14 Noroeste 0 -- -- 83
2021-01-17 01:00:00 8.1 10 Oeste 21 Oeste 0 -- -- 81
2021-01-17 00:00:00 9.3 12 Oeste 19 Oeste 0 -- -- 80
2021-01-16 23:00:00 9.7 13 Oeste 20 Oeste 0 -- -- 80
2021-01-16 22:00:00 10.4 14 Oeste 19 Sudoeste 0 -- -- 77
2021-01-16 21:00:00 10.7 15 Sudoeste 18 Sudoeste 0 -- -- 77
2021-01-16 20:00:00 11.6 11 Sudoeste 14 Sudoeste 0 -- -- 76
2021-01-16 19:00:00 13.1 8 Sur 13 Sudeste 0 -- -- 75
2021-01-16 18:00:00 13.6 10 Sudeste 15 Este 0 -- -- 73
2021-01-16 17:00:00 13.9 14 Este 19 Este 0 -- -- 71
2021-01-16 16:00:00 13.7 16 Este 21 Este 0 -- -- 71
2021-01-16 15:00:00 13.9 17 Este 24 Nordeste 0 -- -- 67
2021-01-16 14:00:00 14 21 Nordeste 26 Nordeste 0 -- -- 65
2021-01-16 13:00:00 14.2 23 Nordeste 37 Nordeste 0 -- -- 63
2021-01-16 12:00:00 14.1 28 Nordeste 38 Nordeste 0 -- -- 57
2021-01-16 11:00:00 13.9 11 Norte 20 Norte 0 -- -- 54
2021-01-16 10:00:00 9.7 19 Oeste 24 Oeste 0 -- -- 54
2021-01-16 09:00:00 8.6 5 Oeste 13 Noroeste 0 -- -- 55
2021-01-16 08:00:00 10.3 6 Noroeste 15 Noroeste 0 -- -- 46
2021-01-16 07:00:00 10.2 6 Noroeste 12 Noroeste 0 -- -- 48
2021-01-16 06:00:00 11 8 Oeste 20 Oeste 0 -- -- 44
2021-01-16 05:00:00 9.9 9 Oeste 22 Oeste 0 -- -- 54
2021-01-16 04:00:00 10.6 16 Oeste 19 Noroeste 0 -- -- 50
2021-01-16 03:00:00 10.6 13 Noroeste 19 Noroeste 0 -- -- 52
2021-01-16 02:00:00 10.9 16 Oeste 21 Oeste 0 -- -- 55
2021-01-16 01:00:00 11.1 15 Oeste 21 Oeste 0 -- -- 55
2021-01-16 00:00:00 10.4 10 Oeste 13 Noroeste 0 -- -- 63
2021-01-15 23:00:00 12.3 10 Oeste 19 Oeste 0 -- -- 56
2021-01-15 22:00:00 11.3 9 Oeste 21 Sudoeste 0 -- -- 70
2021-01-15 21:00:00 11.2 14 Oeste 23 Oeste 0 -- -- 75
2021-01-15 20:00:00 12.2 7 Oeste 14 Oeste 0 -- -- 83
2021-01-15 19:00:00 12.4 10 Noroeste 14 Noroeste 0 -- -- 86
2021-01-15 18:00:00 14.1 15 Sur 25 Sur 0 -- -- 83
2021-01-15 17:00:00 14.1 23 Sudeste 27 Sudeste 0 -- -- 83
2021-01-15 16:00:00 14.3 23 Sudeste 27 Sudeste 0 -- -- 84
2021-01-15 15:00:00 13.8 23 Sudeste 27 Sudeste 0 -- -- 79
2021-01-15 14:00:00 13.7 23 Sur 26 Sur 0 -- -- 78
2021-01-15 13:00:00 13.9 15 Sudeste 19 Sur 0 -- -- 73
2021-01-15 12:00:00 14.8 0 Calma 10 Oeste 0 -- -- 43
2021-01-15 11:00:00 11.9 6 Oeste 13 Oeste 0 -- -- 53
2021-01-15 10:00:00 9 8 Oeste 13 Oeste 0 -- -- 59
2021-01-15 09:00:00 8.3 11 Oeste 19 Noroeste 0 -- -- 59
2021-01-15 08:00:00 6.5 7 Noroeste 16 Oeste 0 -- -- 67
2021-01-15 07:00:00 9 5 Oeste 11 Oeste 0 -- -- 60
2021-01-15 06:00:00 9 0 Calma 11 Sudoeste 0 -- -- 60
2021-01-15 05:00:00 10.2 9 Oeste 13 Sudoeste 0 -- -- 56
2021-01-15 04:00:00 9.9 10 Oeste 17 Sudoeste 0 -- -- 58
2021-01-15 03:00:00 9.1 11 Oeste 16 Oeste 0 -- -- 63
2021-01-15 02:00:00 9.9 8 Oeste 17 Oeste 0 -- -- 61
2021-01-15 01:00:00 10 12 Oeste 17 Oeste 0 -- -- 66
2021-01-15 00:00:00 10.3 7 Oeste 12 Sudoeste 0 -- -- 69
2021-01-14 23:00:00 10.3 10 Oeste 15 Oeste 0 -- -- 77
2021-01-14 22:00:00 10.8 14 Oeste 19 Oeste 0 -- -- 76
2021-01-14 21:00:00 11.4 8 Oeste 17 Oeste 0 -- -- 77
2021-01-14 20:00:00 12.4 10 Noroeste 15 Noroeste 0 -- -- 81
2021-01-14 19:00:00 13.2 5 Norte 10 Noroeste 0 -- -- 83
2021-01-14 18:00:00 14.6 8 Noroeste 13 Sur 0 -- -- 78
2021-01-14 17:00:00 14.7 14 Sur 23 Sur 0 -- -- 81
2021-01-14 16:00:00 14.4 21 Sur 28 Sudeste 0 -- -- 81
2021-01-14 15:00:00 14.2 24 Sudeste 27 Sudeste 0 -- -- 78
2021-01-14 14:00:00 14 18 Sudeste 20 Sudeste 0 -- -- 79
2021-01-14 13:00:00 13.3 6 Sudeste 9 Sudeste 0 -- -- 62
2021-01-14 12:00:00 13.4 4 Sur 6 Sudoeste 0 -- -- 46
2021-01-14 11:00:00 10.8 5 Oeste 10 Noroeste 0 -- -- 58
2021-01-14 10:00:00 8.9 4 Oeste 11 Oeste 0 -- -- 57
2021-01-14 09:00:00 6.9 3 Sudoeste 14 Oeste 0 -- -- 70
2021-01-14 08:00:00 6.1 9 Oeste 13 Oeste 0 -- -- 69
2021-01-14 07:00:00 5.5 4 Noroeste 12 Oeste 0 -- -- 76
2021-01-14 06:00:00 5.8 5 Oeste 13 Oeste 0 -- -- 73
2021-01-14 05:00:00 6.5 4 Oeste 18 Oeste 0 -- -- 77
2021-01-14 04:00:00 7.1 8 Oeste 13 Oeste 0 -- -- 76
2021-01-14 03:00:00 7 7 Noroeste 12 Oeste 0 -- -- 76
2021-01-14 02:00:00 7 5 Noroeste 19 Oeste 0 -- -- 77
2021-01-14 01:00:00 7.7 4 Noroeste 19 Sudoeste 0 -- -- 76
2021-01-14 00:00:00 8.5 13 Oeste 18 Oeste 0 -- -- 78
2021-01-13 23:00:00 8.9 13 Oeste 16 Oeste 0 -- -- 78
2021-01-13 22:00:00 9.5 3 Noroeste 13 Oeste 0 -- -- 77
2021-01-13 21:00:00 10 8 Oeste 15 Oeste 0 -- -- 79
2021-01-13 20:00:00 10.6 6 Oeste 9 Sudoeste 0 -- -- 78
2021-01-13 19:00:00 13.1 4 Norte 15 Norte 0 -- -- 72
2021-01-13 18:00:00 13.9 8 Norte 22 Norte 0 -- -- 72
2021-01-13 17:00:00 14.3 12 Norte 17 Nordeste 0 -- -- 72
2021-01-13 16:00:00 14.5 8 Nordeste 15 Sudeste 0 -- -- 71
2021-01-13 15:00:00 13.8 11 Sudeste 14 Sudeste 0 -- -- 68
2021-01-13 14:00:00 13.8 8 Este 13 Este 0 -- -- 52
2021-01-13 13:00:00 13.4 5 Sur 10 Sur 0 -- -- 51
2021-01-13 12:00:00 13.3 2 Oeste 9 Oeste 0 -- -- 43
2021-01-13 11:00:00 10.2 8 Noroeste 11 Noroeste 0 -- -- 52
2021-01-13 10:00:00 7.4 6 Noroeste 15 Oeste 0 -- -- 63
2021-01-13 09:00:00 5.9 11 Oeste 15 Oeste 0 -- -- 67
2021-01-13 08:00:00 6.1 9 Oeste 14 Oeste 0 -- -- 66
2021-01-13 07:00:00 6.3 6 Oeste 13 Oeste 0 -- -- 67
2021-01-13 06:00:00 6.1 8 Noroeste 17 Noroeste 0 -- -- 67
2021-01-13 05:00:00 6.7 14 Noroeste 17 Oeste 0 -- -- 66
2021-01-13 04:00:00 6.8 13 Noroeste 18 Oeste 0 -- -- 68
2021-01-13 03:00:00 6.2 8 Oeste 21 Oeste 0 -- -- 74
2021-01-13 02:00:00 7.4 12 Noroeste 18 Noroeste 0 -- -- 67
2021-01-13 01:00:00 7.6 12 Oeste 18 Oeste 0 -- -- 68
2021-01-13 00:00:00 8.3 13 Oeste 18 Oeste 0 -- -- 68
2021-01-12 23:00:00 9.6 10 Oeste 28 Oeste 0 -- -- 72
2021-01-12 22:00:00 10.1 16 Oeste 25 Oeste 0 -- -- 73
2021-01-12 21:00:00 11.6 12 Oeste 26 Oeste 0 -- -- 69
2021-01-12 20:00:00 11.4 13 Oeste 27 Oeste 0 -- -- 70
2021-01-12 19:00:00 12.2 19 Sudoeste 24 Sudoeste 0 -- -- 66
2021-01-12 18:00:00 13.7 8 Sur 30 Sur 0 -- -- 67
2021-01-12 17:00:00 14.2 26 Sur 35 Sur 0 -- -- 65
2021-01-12 16:00:00 13.7 32 Sudeste 37 Sur 0 -- -- 74
2021-01-12 15:00:00 13.4 27 Sudeste 33 Sudeste 0 -- -- 77
2021-01-12 14:00:00 13.3 18 Sudeste 24 Sur 0 -- -- 73
2021-01-12 13:00:00 12.5 6 Este 9 Este 0 -- -- 70
2021-01-12 12:00:00 11.3 5 Norte 13 Oeste 0 -- -- 68
2021-01-12 11:00:00 9 10 Noroeste 14 Oeste 0 -- -- 77
2021-01-12 10:00:00 6.3 11 Oeste 17 Noroeste 0 -- -- 85
2021-01-12 09:00:00 4.9 13 Noroeste 20 Noroeste 0 -- -- 86
2021-01-12 08:00:00 5.5 15 Oeste 19 Oeste 0 -- -- 85
2021-01-12 07:00:00 4.9 11 Noroeste 16 Noroeste 0 -- -- 88
2021-01-12 06:00:00 5.4 10 Oeste 14 Oeste 0 -- -- 89
2021-01-12 05:00:00 5.6 9 Noroeste 13 Noroeste 0 -- -- 90
2021-01-12 04:00:00 5.6 7 Noroeste 12 Noroeste 0 -- -- 92
2021-01-12 03:00:00 6.8 8 Noroeste 15 Oeste 0 -- -- 90
2021-01-12 02:00:00 7 12 Oeste 15 Oeste 0 -- -- 90
2021-01-12 01:00:00 7.1 10 Noroeste 14 Oeste 0 -- -- 92
2021-01-12 00:00:00 8 5 Noroeste 15 Noroeste 0 -- -- 93
2021-01-11 23:00:00 8.2 13 Oeste 15 Oeste 0 -- -- 92
2021-01-11 22:00:00 9.5 5 Oeste 10 Oeste 0 -- -- 89
2021-01-11 21:00:00 9.5 8 Oeste 12 Oeste 0 -- -- 89
2021-01-11 20:00:00 9.6 6 Oeste 9 Oeste 0 -- -- 90
2021-01-11 19:00:00 10 3 Norte 8 Sudeste 0 -- -- 88
2021-01-11 18:00:00 10 7 Sudeste 17 Sudeste 0 -- -- 90
2021-01-11 17:00:00 10.1 14 Sur 24 Sur 0 -- -- 89
2021-01-11 16:00:00 10.9 17 Sur 28 Sur 0 -- -- 82
2021-01-11 15:00:00 12.1 18 Nordeste 23 Nordeste 0 -- -- 67
2021-01-11 14:00:00 11.9 8 Norte 16 Noroeste 0 -- -- 61
2021-01-11 13:00:00 11.8 9 Norte 16 Norte 0 -- -- 63
2021-01-11 12:00:00 10.5 12 Noroeste 19 Noroeste 0 -- -- 65
2021-01-11 11:00:00 9.8 9 Noroeste 21 Noroeste 0 -- -- 72
2021-01-11 10:00:00 8.4 14 Noroeste 19 Noroeste 0 -- -- 74
2021-01-11 09:00:00 7.9 13 Noroeste 21 Noroeste 0.2 -- -- 75
2021-01-11 08:00:00 7.6 12 Noroeste 19 Noroeste 0 -- -- 78
2021-01-11 07:00:00 7.2 9 Noroeste 20 Noroeste 0.2 -- -- 81
2021-01-11 06:00:00 7.9 13 Noroeste 23 Noroeste 0 -- -- 77
2021-01-11 05:00:00 7.8 13 Noroeste 29 Noroeste 0 -- -- 77
2021-01-11 04:00:00 8.1 14 Noroeste 24 Noroeste 0 -- -- 76
2021-01-11 03:00:00 8.1 15 Noroeste 22 Noroeste 0 -- -- 78
2021-01-11 02:00:00 7.6 10 Noroeste 18 Noroeste 0 -- -- 82
2021-01-11 01:00:00 8 9 Noroeste 22 Norte 0 -- -- 81
2021-01-11 00:00:00 8.3 9 Norte 15 Norte 0 -- -- 82
2021-01-10 23:00:00 8.4 9 Noroeste 22 Norte 0 -- -- 79
2021-01-10 22:00:00 8.7 16 Norte 24 Norte 0 -- -- 79
2021-01-10 21:00:00 9.3 14 Norte 23 Noroeste 0 -- -- 79
2021-01-10 20:00:00 10.3 11 Norte 19 Nordeste 0 -- -- 78
2021-01-10 19:00:00 11.4 12 Nordeste 21 Nordeste 0 -- -- 77
2021-01-10 18:00:00 11.4 15 Nordeste 24 Nordeste 0 -- -- 77
2021-01-10 17:00:00 11.9 16 Nordeste 23 Nordeste 0 -- -- 77
2021-01-10 16:00:00 11.9 13 Este 18 Este 0 -- -- 72
2021-01-10 15:00:00 11.9 10 Este 14 Este 0 -- -- 72
2021-01-10 14:00:00 11.5 9 Este 14 Este 0 -- -- 74
2021-01-10 13:00:00 12 8 Este 14 Norte 0 -- -- 68
2021-01-10 12:00:00 11.2 6 Norte 13 Norte 0 -- -- 72
2021-01-10 11:00:00 9.5 5 Oeste 9 Noroeste 0 -- -- 77
2021-01-10 10:00:00 8.1 6 Noroeste 18 Oeste 0 -- -- 80
2021-01-10 09:00:00 6.8 10 Oeste 15 Oeste 0 -- -- 87
2021-01-10 08:00:00 6.5 11 Sudoeste 16 Sudoeste 0 -- -- 86
2021-01-10 07:00:00 6.9 8 Oeste 19 Noroeste 0 -- -- 87
2021-01-10 06:00:00 7.8 9 Oeste 14 Oeste 0 -- -- 81
2021-01-10 05:00:00 7.5 7 Oeste 12 Oeste 0 -- -- 81
2021-01-10 04:00:00 8.2 6 Noroeste 16 Sudoeste 0 -- -- 78
2021-01-10 03:00:00 8.1 13 Sudoeste 26 Sudoeste 0.2 -- -- 79
2021-01-10 02:00:00 8.2 7 Noroeste 16 Oeste 1.6 -- -- 77
2021-01-10 01:00:00 7.7 11 Oeste 16 Oeste 0 -- -- 75
2021-01-10 00:00:00 7.7 10 Oeste 17 Oeste 0 -- -- 74
2021-01-09 23:00:00 8.4 5 Oeste 17 Oeste 0 -- -- 69
2021-01-09 22:00:00 9.6 13 Oeste 18 Oeste 0 -- -- 62
2021-01-09 21:00:00 10.7 13 Oeste 32 Oeste 0 -- -- 60
2021-01-09 20:00:00 11.5 23 Sudoeste 31 Sudoeste 0 -- -- 57
2021-01-09 19:00:00 11.6 13 Sudoeste 33 Sudoeste 0 -- -- 60
2021-01-09 18:00:00 12.9 26 Sudoeste 47 Sudoeste 0 -- -- 50
2021-01-09 17:00:00 13.6 29 Sudoeste 48 Sudoeste 0 -- -- 47
2021-01-09 16:00:00 14.2 23 Sur 40 Sur 0 -- -- 54
2021-01-09 15:00:00 15.6 24 Sudoeste 32 Sudoeste 0 -- -- 47
2021-01-09 14:00:00 14.8 7 Sudeste 30 Sudoeste -- -- -- 59
2021-01-09 13:00:00 13.7 9 Sudeste 14 Sur 0 -- -- 74
2021-01-09 12:00:00 13.3 3 Sur 11 Sur 0 -- -- 87
2021-01-09 11:00:00 11.7 4 Noroeste 17 Oeste 0 -- -- 92
2021-01-09 10:00:00 9.2 8 Oeste 15 Oeste 0 -- -- 95
2021-01-09 09:00:00 8.6 4 Oeste 12 Oeste 0 -- -- 96
2021-01-09 08:00:00 8.7 6 Noroeste 10 Noroeste 0 -- -- 96
2021-01-09 07:00:00 8.9 5 Noroeste 13 Norte 0 -- -- 97
2021-01-09 06:00:00 8.8 7 Oeste 15 Oeste 0 -- -- 98
2021-01-09 05:00:00 8.6 9 Noroeste 17 Noroeste 0 -- -- 99
2021-01-09 04:00:00 8.6 10 Oeste 19 Oeste 1 -- -- 99
2021-01-09 03:00:00 8.4 14 Noroeste 20 Noroeste 1 -- -- 99
2021-01-09 02:00:00 8.3 13 Noroeste 20 Noroeste 2.2 -- -- 99
2021-01-09 01:00:00 8.3 14 Noroeste 23 Oeste 2.2 -- -- 99
2021-01-09 00:00:00 8.3 11 Noroeste 18 Noroeste 0.8 -- -- 98
2021-01-08 23:00:00 8.3 11 Noroeste 20 Noroeste 0.6 -- -- 96
2021-01-08 22:00:00 8.6 8 Noroeste 19 Noroeste 0.8 -- -- 96
2021-01-08 21:00:00 8.2 12 Noroeste 23 Noroeste 2.8 -- -- 96
2021-01-08 20:00:00 8.8 16 Noroeste 28 Norte 1 -- -- 92
2021-01-08 19:00:00 8.4 12 Noroeste 29 Nordeste 0.2 -- -- 93
2021-01-08 18:00:00 9.1 18 Norte 34 Norte 0.4 -- -- 96
2021-01-08 17:00:00 8.4 12 Noroeste 22 Norte 0.8 -- -- 97
2021-01-08 16:00:00 8.8 12 Noroeste 26 Noroeste 1.8 -- -- 97
2021-01-08 15:00:00 8.2 17 Noroeste 28 Noroeste 0.2 -- -- 97
2021-01-08 14:00:00 8.1 18 Noroeste 26 Norte 0 -- -- 99
2021-01-08 13:00:00 8 14 Noroeste 23 Noroeste 0.8 -- -- 100
2021-01-08 12:00:00 8 14 Noroeste 27 Noroeste 1.8 -- -- 100
2021-01-08 11:00:00 7.4 16 Noroeste 25 Noroeste 0.4 -- -- 100
2021-01-08 10:00:00 7.4 12 Noroeste 22 Noroeste 1.2 -- -- 99
2021-01-08 09:00:00 6.8 16 Noroeste 22 Noroeste 0.8 -- -- 99
2021-01-08 08:00:00 6.7 14 Noroeste 21 Noroeste 0.2 -- -- 98
2021-01-08 07:00:00 6.9 14 Noroeste 21 Noroeste 0.4 -- -- 97
2021-01-08 06:00:00 6.9 13 Noroeste 19 Noroeste 0.2 -- -- 98
2021-01-08 05:00:00 6.7 12 Noroeste 21 Noroeste 0.2 -- -- 98
2021-01-08 04:00:00 6.8 10 Norte 16 Norte 1.6 -- -- 99
2021-01-08 03:00:00 6.9 10 Noroeste 21 Noroeste 2.6 -- -- 98
2021-01-08 02:00:00 6.8 15 Noroeste 27 Norte 1.6 -- -- 97
2021-01-08 01:00:00 6.8 13 Norte 21 Noroeste 2.8 -- -- 97
2021-01-08 00:00:00 6.9 13 Noroeste 25 Noroeste 1.4 -- -- 97
2021-01-07 23:00:00 6.8 14 Noroeste 25 Norte 0 -- -- 97
2021-01-07 22:00:00 7.3 13 Noroeste 18 Noroeste 0 -- -- 96
2021-01-07 21:00:00 7.6 12 Noroeste 22 Noroeste 0 -- -- 95
2021-01-07 20:00:00 7.8 12 Noroeste 21 Norte 0 -- -- 97
2021-01-07 19:00:00 8 11 Noroeste 19 Noroeste 0 -- -- 98
2021-01-07 18:00:00 7.8 13 Noroeste 24 Noroeste 0.2 -- -- 98
2021-01-07 17:00:00 7.7 13 Noroeste 23 Norte 0 -- -- 97
2021-01-07 16:00:00 7.8 12 Noroeste 18 Noroeste 0.2 -- -- 98
2021-01-07 15:00:00 7.7 11 Noroeste 18 Noroeste 0.4 -- -- 97
2021-01-07 14:00:00 7.4 12 Noroeste 19 Noroeste 0.4 -- -- 97
2021-01-07 13:00:00 7.2 14 Noroeste 21 Noroeste 0.6 -- -- 96
2021-01-07 12:00:00 6.8 13 Noroeste 19 Noroeste 0.4 -- -- 94
2021-01-07 11:00:00 6.7 12 Noroeste 24 Noroeste 0.4 -- -- 93
2021-01-07 10:00:00 6.6 17 Noroeste 28 Noroeste 0 -- -- 92
2021-01-07 09:00:00 6.4 15 Noroeste 27 Noroeste 0.2 -- -- 93
2021-01-07 08:00:00 6.8 12 Norte 28 Norte 0.4 -- -- 93
2021-01-07 07:00:00 6.9 15 Norte 26 Noroeste 1 -- -- 93
2021-01-07 06:00:00 7.5 11 Noroeste 22 Noroeste 0.8 -- -- 93
2021-01-07 05:00:00 7.7 12 Noroeste 22 Norte 1.2 -- -- 93
2021-01-07 04:00:00 7.7 14 Noroeste 23 Norte 2.2 -- -- 92
2021-01-07 03:00:00 8 14 Noroeste 26 Norte 1.4 -- -- 91
2021-01-07 02:00:00 8.4 15 Norte 38 Norte 2.6 -- -- 89
2021-01-07 01:00:00 9.5 26 Norte 40 Norte 3.8 -- -- 89
2021-01-07 00:00:00 9.8 26 Norte 37 Norte 2.8 -- -- 92
2021-01-06 23:00:00 9.3 15 Norte 37 Norte 2.8 -- -- 91
2021-01-06 22:00:00 10.7 27 Norte 45 Nordeste 0.2 -- -- 87
2021-01-06 21:00:00 11.9 33 Nordeste 44 Nordeste 0.4 -- -- 80
2021-01-06 20:00:00 12.3 28 Nordeste 39 Norte 0 -- -- 76
2021-01-06 19:00:00 12.3 27 Nordeste 34 Nordeste 0 -- -- 74
2021-01-06 18:00:00 12.3 26 Nordeste 36 Nordeste 0 -- -- 72
2021-01-06 17:00:00 12.3 21 Nordeste 30 Nordeste 0 -- -- 70
2021-01-06 16:00:00 12.3 22 Nordeste 35 Nordeste 0 -- -- 69
2021-01-06 15:00:00 12.5 22 Nordeste 30 Nordeste 0 -- -- 65
2021-01-06 14:00:00 12.4 16 Nordeste 26 Nordeste 0 -- -- 61
2021-01-06 13:00:00 12.3 16 Nordeste 26 Nordeste 0 -- -- 58
2021-01-06 12:00:00 11.5 9 Noroeste 18 Noroeste 0 -- -- 49
2021-01-06 11:00:00 10.4 13 Noroeste 21 Noroeste 0 -- -- 47
2021-01-06 10:00:00 9.4 14 Noroeste 24 Noroeste 0 -- -- 48
2021-01-06 09:00:00 8.4 14 Noroeste 23 Noroeste 0 -- -- 47
2021-01-06 08:00:00 8.3 12 Noroeste 20 Noroeste 0 -- -- 48
2021-01-06 07:00:00 8.2 12 Noroeste 18 Noroeste 0 -- -- 49
2021-01-06 06:00:00 8.1 12 Noroeste 24 Noroeste 0 -- -- 49
2021-01-06 05:00:00 8.8 18 Noroeste 26 Noroeste 0 -- -- 46
2021-01-06 04:00:00 8.8 16 Noroeste 24 Noroeste 0 -- -- 48
2021-01-06 03:00:00 9.3 17 Norte 26 Noroeste 0 -- -- 46
2021-01-06 02:00:00 9.5 13 Norte 20 Noroeste 0 -- -- 46
2021-01-06 01:00:00 9.9 12 Norte 18 Norte 0 -- -- 50
2021-01-06 00:00:00 9.6 5 Noroeste 13 Noroeste 0 -- -- 56
2021-01-05 23:00:00 10.2 6 Noroeste 11 Noroeste 0 -- -- 54
2021-01-05 22:00:00 11.7 6 Nordeste 19 Nordeste 0 -- -- 52
2021-01-05 21:00:00 12 12 Nordeste 20 Nordeste 0 -- -- 51
2021-01-05 20:00:00 11.9 11 Este 22 Este 0 -- -- 49
2021-01-05 19:00:00 12 14 Este 23 Este 0 -- -- 54
2021-01-05 18:00:00 11.8 13 Este 21 Este 0 -- -- 49
2021-01-05 17:00:00 11.9 15 Este 21 Este 0 -- -- 52
2021-01-05 16:00:00 11.9 13 Este 21 Este 0 -- -- 47
2021-01-05 15:00:00 12 12 Este 20 Este 0 -- -- 53
2021-01-05 14:00:00 11.7 11 Este 18 Este 0 -- -- 52
2021-01-05 13:00:00 12.3 5 Este 11 Nordeste 0 -- -- 51
2021-01-05 12:00:00 11.6 4 Nordeste 10 Nordeste 0 -- -- 49
2021-01-05 11:00:00 10.3 4 Noroeste 15 Noroeste 0 -- -- 52
2021-01-05 10:00:00 7.3 8 Noroeste 15 Oeste 0 -- -- 66
2021-01-05 09:00:00 5.4 10 Oeste 15 Oeste 0 -- -- 66
2021-01-05 08:00:00 6.6 10 Oeste 15 Noroeste 0 -- -- 64
2021-01-05 07:00:00 7 8 Noroeste 15 Norte 0 -- -- 63
2021-01-05 06:00:00 6.4 4 Noroeste 12 Oeste 0 -- -- 63
2021-01-05 05:00:00 6.8 9 Oeste 15 Oeste 0 -- -- 56
2021-01-05 04:00:00 7.4 12 Oeste 17 Oeste 0 -- -- 53
2021-01-05 03:00:00 7 17 Oeste 21 Oeste 0 -- -- 57
2021-01-05 02:00:00 7.6 8 Oeste 18 Oeste 0 -- -- 59
2021-01-05 01:00:00 7.2 12 Oeste 19 Oeste 0 -- -- 60
2021-01-05 00:00:00 6.9 15 Oeste 20 Oeste 0 -- -- 59
2021-01-04 23:00:00 8.3 14 Oeste 19 Oeste 0 -- -- 57
2021-01-04 22:00:00 8.5 10 Oeste 15 Oeste 0 -- -- 55
2021-01-04 21:00:00 9.2 12 Noroeste 15 Oeste 0 -- -- 54
2021-01-04 20:00:00 10.2 11 Oeste 22 Oeste 0 -- -- 54
2021-01-04 19:00:00 11.5 10 Oeste 18 Oeste 0 -- -- 52
2021-01-04 18:00:00 12.7 15 Sur 23 Sur 0 -- -- 57
2021-01-04 17:00:00 12.9 17 Sur 24 Sudeste 0 -- -- 52
2021-01-04 16:00:00 12.8 19 Sudeste 30 Sudeste 0 -- -- 54
2021-01-04 15:00:00 12.6 23 Sudeste 26 Sudeste 0 -- -- 55
2021-01-04 14:00:00 12.6 17 Sudeste 22 Sudeste 0 -- -- 54
2021-01-04 13:00:00 12.5 15 Sudeste 21 Sudeste 0 -- -- 51
2021-01-04 12:00:00 13.5 4 Sudeste 18 Oeste 0 -- -- 35
2021-01-04 11:00:00 10.8 13 Oeste 21 Oeste 0 -- -- 37
2021-01-04 10:00:00 8 16 Oeste 24 Sudoeste 0 -- -- 43
2021-01-04 09:00:00 7.1 14 Oeste 23 Oeste 0 -- -- 47
2021-01-04 08:00:00 5.4 8 Oeste 21 Oeste 0 -- -- 48
2021-01-04 07:00:00 6 12 Oeste 19 Oeste 0 -- -- 46
2021-01-04 06:00:00 6.6 12 Oeste 20 Oeste 0 -- -- 43
2021-01-04 05:00:00 6.4 10 Oeste 18 Sudoeste 0 -- -- 44
2021-01-04 04:00:00 7.1 12 Oeste 21 Oeste 0 -- -- 39
2021-01-04 03:00:00 7.6 13 Oeste 20 Oeste 0 -- -- 43
2021-01-04 02:00:00 6.4 11 Oeste 15 Oeste 0 -- -- 48
2021-01-04 01:00:00 6.5 2 Noroeste 13 Oeste 0 -- -- 56
2021-01-04 00:00:00 6.7 11 Noroeste 15 Oeste 0 -- -- 53
2021-01-03 23:00:00 7.9 14 Oeste 18 Oeste 0 -- -- 54
2021-01-03 22:00:00 8.2 8 Oeste 17 Oeste 0 -- -- 54
2021-01-03 21:00:00 8.3 14 Oeste 18 Oeste 0 -- -- 56
2021-01-03 20:00:00 10.2 10 Oeste 16 Oeste 0 -- -- 54
2021-01-03 19:00:00 11.4 7 Sudoeste 24 Sudeste 0 -- -- 53
2021-01-03 18:00:00 12.5 18 Sur 32 Sur 0 -- -- 55
2021-01-03 17:00:00 13 10 Sur 27 Sudoeste 0 -- -- 52
2021-01-03 16:00:00 12.8 17 Sur 35 Sur 0 -- -- 51
2021-01-03 15:00:00 13.1 8 Este 27 Sudoeste 0 -- -- 34
2021-01-03 14:00:00 13.4 9 Sur 42 Noroeste 0 -- -- 34
2021-01-03 13:00:00 12.8 26 Noroeste 39 Oeste 0 -- -- 29
2021-01-03 12:00:00 11.8 28 Noroeste 46 Oeste 0 -- -- 31
2021-01-03 11:00:00 11.2 24 Noroeste 40 Oeste 0 -- -- 33
2021-01-03 10:00:00 10.1 26 Oeste 47 Oeste 0 -- -- 34
2021-01-03 09:00:00 9 12 Oeste 36 Oeste 0 -- -- 37
2021-01-03 08:00:00 8.5 17 Oeste 37 Oeste 0 -- -- 38
2021-01-03 07:00:00 8.4 20 Oeste 35 Oeste 0 -- -- 39
2021-01-03 06:00:00 8.2 19 Oeste 41 Oeste 0 -- -- 38
2021-01-03 05:00:00 8.6 23 Noroeste 34 Oeste 0 -- -- 40
2021-01-03 04:00:00 7.9 11 Oeste 32 Oeste 0 -- -- 42
2021-01-03 03:00:00 9.5 24 Oeste 39 Oeste 0 -- -- 36
2021-01-03 02:00:00 9.1 17 Oeste 25 Oeste 0 -- -- 44
2021-01-03 01:00:00 8.2 10 Oeste 27 Noroeste 0 -- -- 49
2021-01-03 00:00:00 8.8 5 Oeste 27 Oeste 0 -- -- 45
2021-01-02 23:00:00 9.2 17 Oeste 35 Oeste 0 -- -- 45
2021-01-02 22:00:00 9.5 21 Noroeste 37 Noroeste 0 -- -- 45
2021-01-02 21:00:00 9.5 23 Noroeste 34 Noroeste 0 -- -- 42
2021-01-02 20:00:00 9.8 14 Oeste 26 Oeste 0 -- -- 41
2021-01-02 19:00:00 10.6 14 Oeste 30 Oeste 0 -- -- 36
2021-01-02 18:00:00 11.2 16 Oeste 36 Oeste 0 -- -- 34
2021-01-02 17:00:00 12.2 21 Oeste 50 Oeste 0 -- -- 31
2021-01-02 16:00:00 12.5 34 Oeste 52 Oeste 0 -- -- 28
2021-01-02 15:00:00 12.4 33 Oeste 51 Oeste 0 -- -- 28
2021-01-02 14:00:00 12.3 31 Oeste 54 Oeste 0 -- -- 29